sensor_id;sensor_type;location;lat;lon;timestamp;pressure;altitude;pressure_sealevel;temperature;humidity
55656;BME280;41530;52.382;5.270;2023-04-25T00:02:13;101286.94;;;16.78;44.57
55656;BME280;41530;52.382;5.270;2023-04-25T00:04:40;101295.06;;;16.76;44.76
55656;BME280;41530;52.382;5.270;2023-04-25T00:07:07;101295.06;;;16.76;44.58
55656;BME280;41530;52.382;5.270;2023-04-25T00:09:34;101285.53;;;16.73;44.58
55656;BME280;41530;52.382;5.270;2023-04-25T00:12:01;101291.69;;;16.74;44.63
55656;BME280;41530;52.382;5.270;2023-04-25T00:14:29;101288.19;;;16.73;44.46
55656;BME280;41530;52.382;5.270;2023-04-25T00:16:55;101290.97;;;16.72;44.55
55656;BME280;41530;52.382;5.270;2023-04-25T00:19:22;101280.47;;;16.70;44.32
55656;BME280;41530;52.382;5.270;2023-04-25T00:21:49;101292.09;;;16.69;44.39
55656;BME280;41530;52.382;5.270;2023-04-25T00:24:15;101300.31;;;16.66;44.44
55656;BME280;41530;52.382;5.270;2023-04-25T00:26:42;101300.19;;;16.68;44.48
55656;BME280;41530;52.382;5.270;2023-04-25T00:29:08;101300.31;;;16.66;44.54
55656;BME280;41530;52.382;5.270;2023-04-25T00:31:35;101302.28;;;16.64;44.28
55656;BME280;41530;52.382;5.270;2023-04-25T00:34:02;101312.63;;;16.67;44.38
55656;BME280;41530;52.382;5.270;2023-04-25T00:36:28;101305.75;;;16.65;44.27
55656;BME280;41530;52.382;5.270;2023-04-25T00:38:55;101302.28;;;16.64;44.17
55656;BME280;41530;52.382;5.270;2023-04-25T00:41:22;101311.34;;;16.62;44.09
55656;BME280;41530;52.382;5.270;2023-04-25T00:43:49;101311.34;;;16.62;44.33
55656;BME280;41530;52.382;5.270;2023-04-25T00:46:17;101313.16;;;16.61;44.29
55656;BME280;41530;52.382;5.270;2023-04-25T00:48:44;101313.28;;;16.60;43.85
55656;BME280;41530;52.382;5.270;2023-04-25T00:51:14;101318.59;;;16.60;43.62
55656;BME280;41530;52.382;5.270;2023-04-25T00:53:42;101316.19;;;16.57;43.82
55656;BME280;41530;52.382;5.270;2023-04-25T00:56:09;101324.28;;;16.55;43.82
55656;BME280;41530;52.382;5.270;2023-04-25T00:58:36;101320.94;;;16.53;43.91
55656;BME280;41530;52.382;5.270;2023-04-25T01:01:04;101310.31;;;16.53;43.81
55656;BME280;41530;52.382;5.270;2023-04-25T01:03:32;101313.94;;;16.52;43.35
55656;BME280;41530;52.382;5.270;2023-04-25T01:05:59;101316.75;;;16.51;43.62
55656;BME280;41530;52.382;5.270;2023-04-25T01:08:26;101322.06;;;16.51;43.83
55656;BME280;41530;52.382;5.270;2023-04-25T01:10:52;101320.38;;;16.50;43.49
55656;BME280;41530;52.382;5.270;2023-04-25T01:13:19;101320.63;;;16.47;43.64
55656;BME280;41530;52.382;5.270;2023-04-25T01:15:46;101310.00;;;16.47;43.66
55656;BME280;41530;52.382;5.270;2023-04-25T01:18:13;101308.59;;;16.43;44.01
55656;BME280;41530;52.382;5.270;2023-04-25T01:20:40;101314.47;;;16.46;43.93
55656;BME280;41530;52.382;5.270;2023-04-25T01:23:08;101322.44;;;16.46;44.03
55656;BME280;41530;52.382;5.270;2023-04-25T01:25:35;101324.13;;;16.47;44.04
55656;BME280;41530;52.382;5.270;2023-04-25T01:28:03;101317.00;;;16.48;44.32
55656;BME280;41530;52.382;5.270;2023-04-25T01:30:29;101317.00;;;16.48;44.20
55656;BME280;41530;52.382;5.270;2023-04-25T01:32:57;101324.84;;;16.49;44.16
55656;BME280;41530;52.382;5.270;2023-04-25T01:35:24;101335.59;;;16.48;44.07
55656;BME280;41530;52.382;5.270;2023-04-25T01:37:51;101330.66;;;16.43;43.89
55656;BME280;41530;52.382;5.270;2023-04-25T01:40:20;101329.84;;;16.43;43.98
55656;BME280;41530;52.382;5.270;2023-04-25T01:42:47;101332.34;;;16.44;44.22
55656;BME280;41530;52.382;5.270;2023-04-25T01:45:14;101330.81;;;16.42;44.36
55656;BME280;41530;52.382;5.270;2023-04-25T01:47:40;101329.84;;;16.43;44.28
55656;BME280;41530;52.382;5.270;2023-04-25T01:50:09;101335.13;;;16.43;44.27
55656;BME280;41530;52.382;5.270;2023-04-25T01:52:37;101336.13;;;16.42;44.55
55656;BME280;41530;52.382;5.270;2023-04-25T01:55:05;101343.09;;;16.43;44.33
55656;BME280;41530;52.382;5.270;2023-04-25T01:57:32;101339.59;;;16.42;44.27
55656;BME280;41530;52.382;5.270;2023-04-25T02:00:01;101332.88;;;16.38;44.00
55656;BME280;41530;52.382;5.270;2023-04-25T02:02:29;101320.53;;;16.27;43.78
55656;BME280;41530;52.382;5.270;2023-04-25T02:04:56;101336.53;;;16.37;44.11
55656;BME280;41530;52.382;5.270;2023-04-25T02:07:22;101341.00;;;16.36;44.17
55656;BME280;41530;52.382;5.270;2023-04-25T02:09:49;101339.19;;;16.37;44.12
55656;BME280;41530;52.382;5.270;2023-04-25T02:12:16;101345.34;;;16.37;44.36
55656;BME280;41530;52.382;5.270;2023-04-25T02:14:42;101345.19;;;16.39;44.35
55656;BME280;41530;52.382;5.270;2023-04-25T02:17:09;101334.00;;;16.35;44.36
55656;BME280;41530;52.382;5.270;2023-04-25T02:19:36;101337.50;;;16.36;44.28
55656;BME280;41530;52.382;5.270;2023-04-25T02:22:03;101340.16;;;16.36;44.46
55656;BME280;41530;52.382;5.270;2023-04-25T02:24:29;101348.00;;;16.37;44.22
55656;BME280;41530;52.382;5.270;2023-04-25T02:26:56;101349.94;;;16.35;44.16
55656;BME280;41530;52.382;5.270;2023-04-25T02:29:23;101346.56;;;16.33;44.38
55656;BME280;41530;52.382;5.270;2023-04-25T02:31:49;101353.56;;;16.34;44.24
55656;BME280;41530;52.382;5.270;2023-04-25T02:34:16;101351.88;;;16.33;44.09
55656;BME280;41530;52.382;5.270;2023-04-25T02:36:43;101349.47;;;16.30;44.14
55656;BME280;41530;52.382;5.270;2023-04-25T02:39:09;101349.59;;;16.29;43.94
55656;BME280;41530;52.382;5.270;2023-04-25T02:41:37;101355.88;;;16.28;44.09
55656;BME280;41530;52.382;5.270;2023-04-25T02:44:03;101354.06;;;16.28;44.05
55656;BME280;41530;52.382;5.270;2023-04-25T02:46:30;101362.03;;;16.28;43.97
55656;BME280;41530;52.382;5.270;2023-04-25T02:49:04;101356.00;;;16.26;44.01
55656;BME280;41530;52.382;5.270;2023-04-25T02:51:31;101360.47;;;16.26;44.04
55656;BME280;41530;52.382;5.270;2023-04-25T02:53:58;101362.44;;;16.24;43.73
55656;BME280;41530;52.382;5.270;2023-04-25T02:56:25;101357.41;;;16.21;43.83
55656;BME280;41530;52.382;5.270;2023-04-25T02:58:53;101351.38;;;16.19;43.97
55656;BME280;41530;52.382;5.270;2023-04-25T03:01:20;101361.16;;;16.18;44.02
55656;BME280;41530;52.382;5.270;2023-04-25T03:03:47;101362.81;;;16.19;44.13
55656;BME280;41530;52.382;5.270;2023-04-25T03:06:14;101373.31;;;16.21;44.15
55656;BME280;41530;52.382;5.270;2023-04-25T03:08:41;101372.59;;;16.19;44.03
55656;BME280;41530;52.382;5.270;2023-04-25T03:11:09;101371.75;;;16.18;43.92
55656;BME280;41530;52.382;5.270;2023-04-25T03:13:36;101366.84;;;16.14;43.79
55656;BME280;41530;52.382;5.270;2023-04-25T03:16:03;101368.53;;;16.15;44.03
55656;BME280;41530;52.382;5.270;2023-04-25T03:18:30;101371.19;;;16.15;44.09
55656;BME280;41530;52.382;5.270;2023-04-25T03:20:57;101374.09;;;16.12;43.64
55656;BME280;41530;52.382;5.270;2023-04-25T03:23:24;101380.50;;;16.09;43.66
55656;BME280;41530;52.382;5.270;2023-04-25T03:25:50;101395.84;;;16.06;43.50
55656;BME280;41530;52.382;5.270;2023-04-25T03:28:17;101391.38;;;16.06;43.62
55656;BME280;41530;52.382;5.270;2023-04-25T03:30:44;101389.81;;;16.03;43.64
55656;BME280;41530;52.382;5.270;2023-04-25T03:33:11;101386.44;;;16.01;43.38
55656;BME280;41530;52.382;5.270;2023-04-25T03:35:37;101384.75;;;16.00;43.70
55656;BME280;41530;52.382;5.270;2023-04-25T03:38:04;101387.28;;;16.02;43.82
55656;BME280;41530;52.382;5.270;2023-04-25T03:40:30;101383.78;;;16.01;43.59
55656;BME280;41530;52.382;5.270;2023-04-25T03:42:57;101397.78;;;16.03;43.65
55656;BME280;41530;52.382;5.270;2023-04-25T03:45:23;101393.56;;;16.01;43.53
55656;BME280;41530;52.382;5.270;2023-04-25T03:47:50;101394.53;;;16.00;43.49
55656;BME280;41530;52.382;5.270;2023-04-25T03:50:17;101379.75;;;15.97;43.50
55656;BME280;41530;52.382;5.270;2023-04-25T03:52:43;101384.19;;;15.97;43.63
55656;BME280;41530;52.382;5.270;2023-04-25T03:55:10;101384.31;;;15.95;43.54
55656;BME280;41530;52.382;5.270;2023-04-25T03:57:36;101378.91;;;15.97;43.37
55656;BME280;41530;52.382;5.270;2023-04-25T04:00:03;101381.78;;;15.94;43.30
55656;BME280;41530;52.382;5.270;2023-04-25T04:02:31;101387.94;;;15.94;43.41
55656;BME280;41530;52.382;5.270;2023-04-25T04:04:57;101394.94;;;15.95;43.42
55656;BME280;41530;52.382;5.270;2023-04-25T04:07:24;101400.38;;;15.94;43.13
55656;BME280;41530;52.382;5.270;2023-04-25T04:09:51;101401.47;;;15.91;43.30
55656;BME280;41530;52.382;5.270;2023-04-25T04:12:18;101396.03;;;15.93;43.38
55656;BME280;41530;52.382;5.270;2023-04-25T04:14:44;101397.13;;;15.90;43.14
55656;BME280;41530;52.382;5.270;2023-04-25T04:17:11;101404.13;;;15.91;43.33
55656;BME280;41530;52.382;5.270;2023-04-25T04:19:37;101404.00;;;15.93;43.33
55656;BME280;41530;52.382;5.270;2023-04-25T04:22:04;101411.22;;;15.91;43.43
55656;BME280;41530;52.382;5.270;2023-04-25T04:24:31;101424.50;;;15.91;43.31
55656;BME280;41530;52.382;5.270;2023-04-25T04:26:57;101421.72;;;15.92;43.49
55656;BME280;41530;52.382;5.270;2023-04-25T04:29:25;101413.16;;;15.89;43.55
55656;BME280;41530;52.382;5.270;2023-04-25T04:31:51;101411.09;;;15.92;43.24
55656;BME280;41530;52.382;5.270;2023-04-25T04:34:19;101426.06;;;15.93;43.54
55656;BME280;41530;52.382;5.270;2023-04-25T04:36:46;101426.19;;;15.92;43.63
55656;BME280;41530;52.382;5.270;2023-04-25T04:39:13;101422.56;;;15.93;43.52
55656;BME280;41530;52.382;5.270;2023-04-25T04:41:40;101428.84;;;15.92;43.23
55656;BME280;41530;52.382;5.270;2023-04-25T04:44:07;101424.63;;;15.89;43.39
55656;BME280;41530;52.382;5.270;2023-04-25T04:46:35;101438.72;;;15.90;43.36
55656;BME280;41530;52.382;5.270;2023-04-25T04:49:09;101432.84;;;15.86;43.31
55656;BME280;41530;52.382;5.270;2023-04-25T04:51:36;101435.59;;;15.85;43.22
55656;BME280;41530;52.382;5.270;2023-04-25T04:54:03;101442.88;;;15.83;43.55
55656;BME280;41530;52.382;5.270;2023-04-25T04:56:30;101448.06;;;15.84;43.72
55656;BME280;41530;52.382;5.270;2023-04-25T04:58:57;101451.69;;;15.83;43.24
55656;BME280;41530;52.382;5.270;2023-04-25T05:01:25;101461.44;;;15.83;43.34
55656;BME280;41530;52.382;5.270;2023-04-25T05:03:52;101460.47;;;15.84;43.43
55656;BME280;41530;52.382;5.270;2023-04-25T05:06:20;101461.44;;;15.83;43.53
55656;BME280;41530;52.382;5.270;2023-04-25T05:08:47;101463.81;;;15.86;43.69
55656;BME280;41530;52.382;5.270;2023-04-25T05:11:13;101456.81;;;15.85;43.56
55656;BME280;41530;52.382;5.270;2023-04-25T05:13:40;101456.97;;;15.83;43.73
55656;BME280;41530;52.382;5.270;2023-04-25T05:16:07;101466.34;;;15.87;43.92
55656;BME280;41530;52.382;5.270;2023-04-25T05:18:33;101470.25;;;15.83;43.58
55656;BME280;41530;52.382;5.270;2023-04-25T05:21:00;101474.59;;;15.84;43.71
55656;BME280;41530;52.382;5.270;2023-04-25T05:23:27;101484.34;;;15.84;43.56
55656;BME280;41530;52.382;5.270;2023-04-25T05:25:54;101487.97;;;15.83;43.28
55656;BME280;41530;52.382;5.270;2023-04-25T05:28:20;101495.94;;;15.83;43.31
55656;BME280;41530;52.382;5.270;2023-04-25T05:30:47;101501.38;;;15.81;42.93
55656;BME280;41530;52.382;5.270;2023-04-25T05:33:14;101494.63;;;15.77;42.80
55656;BME280;41530;52.382;5.270;2023-04-25T05:35:41;101508.13;;;15.74;42.78
55656;BME280;41530;52.382;5.270;2023-04-25T05:38:08;101505.47;;;15.74;42.56
55656;BME280;41530;52.382;5.270;2023-04-25T05:40:35;101509.09;;;15.73;42.89
55656;BME280;41530;52.382;5.270;2023-04-25T05:43:02;101503.78;;;15.73;43.06
55656;BME280;41530;52.382;5.270;2023-04-25T05:45:28;101504.50;;;15.75;43.40
55656;BME280;41530;52.382;5.270;2023-04-25T05:47:55;101508.84;;;15.76;43.07
55656;BME280;41530;52.382;5.270;2023-04-25T05:50:22;101505.59;;;15.73;42.73
55656;BME280;41530;52.382;5.270;2023-04-25T05:52:49;101509.91;;;15.74;42.60
55656;BME280;41530;52.382;5.270;2023-04-25T05:55:16;101515.75;;;15.67;42.57
55656;BME280;41530;52.382;5.270;2023-04-25T05:57:42;101513.31;;;15.64;42.43
55656;BME280;41530;52.382;5.270;2023-04-25T06:00:12;101520.44;;;15.64;43.12
55656;BME280;41530;52.382;5.270;2023-04-25T06:02:39;101525.75;;;15.64;43.24
55656;BME280;41530;52.382;5.270;2023-04-25T06:05:06;101529.25;;;15.64;43.41
55656;BME280;41530;52.382;5.270;2023-04-25T06:07:33;101538.78;;;15.67;43.64
55656;BME280;41530;52.382;5.270;2023-04-25T06:10:00;101540.47;;;15.68;43.78
55656;BME280;41530;52.382;5.270;2023-04-25T06:12:27;101548.03;;;15.73;43.70
55656;BME280;41530;52.382;5.270;2023-04-25T06:14:53;101533.91;;;15.72;43.93
55656;BME280;41530;52.382;5.270;2023-04-25T06:17:20;101542.47;;;15.76;44.22
55656;BME280;41530;52.382;5.270;2023-04-25T06:19:47;101538.88;;;15.77;43.52
55656;BME280;41530;52.382;5.270;2023-04-25T06:22:13;101549.13;;;15.81;43.35
55656;BME280;41530;52.382;5.270;2023-04-25T06:24:40;101540.66;;;15.87;43.25
55656;BME280;41530;52.382;5.270;2023-04-25T06:27:06;101540.28;;;15.92;42.73
55656;BME280;41530;52.382;5.270;2023-04-25T06:29:33;101552.47;;;15.94;42.77
55656;BME280;41530;52.382;5.270;2023-04-25T06:32:00;101546.66;;;16.00;42.71
55656;BME280;41530;52.382;5.270;2023-04-25T06:34:26;101554.25;;;16.05;43.20
55656;BME280;41530;52.382;5.270;2023-04-25T06:36:53;101546.75;;;16.10;43.48
55656;BME280;41530;52.382;5.270;2023-04-25T06:39:19;101554.94;;;16.18;43.46
55656;BME280;41530;52.382;5.270;2023-04-25T06:41:46;101555.53;;;16.22;43.80
55656;BME280;41530;52.382;5.270;2023-04-25T06:44:13;101544.91;;;16.22;43.95
55656;BME280;41530;52.382;5.270;2023-04-25T06:46:39;101549.94;;;16.25;44.85
55656;BME280;41530;52.382;5.270;2023-04-25T06:49:06;101564.78;;;16.27;45.14
55656;BME280;41530;52.382;5.270;2023-04-25T06:51:33;101569.00;;;16.30;45.36
55656;BME280;41530;52.382;5.270;2023-04-25T06:53:59;101562.97;;;16.28;45.21
55656;BME280;41530;52.382;5.270;2023-04-25T06:56:26;101567.31;;;16.29;45.29
55656;BME280;41530;52.382;5.270;2023-04-25T06:58:56;101567.44;;;16.27;45.67
55656;BME280;41530;52.382;5.270;2023-04-25T07:01:22;101567.19;;;16.30;45.25
55656;BME280;41530;52.382;5.270;2023-04-25T07:03:49;101574.06;;;16.33;45.53
55656;BME280;41530;52.382;5.270;2023-04-25T07:06:16;101577.44;;;16.35;45.35
55656;BME280;41530;52.382;5.270;2023-04-25T07:08:42;101581.66;;;16.37;45.08
55656;BME280;41530;52.382;5.270;2023-04-25T07:11:09;101568.72;;;16.44;44.94
55656;BME280;41530;52.382;5.270;2023-04-25T07:13:36;101584.00;;;16.52;45.18
55656;BME280;41530;52.382;5.270;2023-04-25T07:16:03;101579.03;;;16.58;45.04
55656;BME280;41530;52.382;5.270;2023-04-25T07:18:29;101582.38;;;16.71;44.76
55656;BME280;41530;52.382;5.270;2023-04-25T07:20:56;101585.50;;;16.77;44.52
55656;BME280;41530;52.382;5.270;2023-04-25T07:23:22;101583.53;;;16.79;44.65
55656;BME280;41530;52.382;5.270;2023-04-25T07:25:49;101588.28;;;16.75;45.20
55656;BME280;41530;52.382;5.270;2023-04-25T07:28:16;101605.09;;;16.76;44.97
55656;BME280;41530;52.382;5.270;2023-04-25T07:30:44;101603.63;;;16.71;45.38
55656;BME280;41530;52.382;5.270;2023-04-25T07:33:11;101597.72;;;16.68;45.62
55656;BME280;41530;52.382;5.270;2023-04-25T07:35:38;101614.28;;;16.71;45.46
55656;BME280;41530;52.382;5.270;2023-04-25T07:38:04;101611.72;;;16.70;45.07
55656;BME280;41530;52.382;5.270;2023-04-25T07:40:33;101613.91;;;16.76;44.90
55656;BME280;41530;52.382;5.270;2023-04-25T07:43:00;101601.22;;;16.68;45.08
55656;BME280;41530;52.382;5.270;2023-04-25T07:45:26;101616.44;;;16.78;45.03
55656;BME280;41530;52.382;5.270;2023-04-25T07:47:53;101610.13;;;16.79;44.82
55656;BME280;41530;52.382;5.270;2023-04-25T07:50:20;101610.59;;;16.84;44.86
55656;BME280;41530;52.382;5.270;2023-04-25T07:52:46;101617.59;;;16.85;44.91
55656;BME280;41530;52.382;5.270;2023-04-25T07:55:13;101615.78;;;16.85;44.87
55656;BME280;41530;52.382;5.270;2023-04-25T07:57:40;101623.69;;;16.96;44.52
55656;BME280;41530;52.382;5.270;2023-04-25T08:00:07;101624.34;;;17.09;44.22
55656;BME280;41530;52.382;5.270;2023-04-25T08:02:35;101617.00;;;17.23;44.02
55656;BME280;41530;52.382;5.270;2023-04-25T08:05:03;101622.69;;;17.39;43.61
55656;BME280;41530;52.382;5.270;2023-04-25T08:07:30;101629.16;;;17.46;43.68
55656;BME280;41530;52.382;5.270;2023-04-25T08:09:57;101629.28;;;17.44;43.59
55656;BME280;41530;52.382;5.270;2023-04-25T08:12:23;101628.59;;;17.42;43.81
55656;BME280;41530;52.382;5.270;2023-04-25T08:14:50;101647.78;;;17.46;43.77
55656;BME280;41530;52.382;5.270;2023-04-25T08:17:17;101642.75;;;17.43;43.57
55656;BME280;41530;52.382;5.270;2023-04-25T08:19:44;101644.34;;;17.55;43.42
55656;BME280;41530;52.382;5.270;2023-04-25T08:22:11;101655.34;;;17.71;43.55
55656;BME280;41530;52.382;5.270;2023-04-25T08:24:39;101656.81;;;17.85;43.27
55656;BME280;41530;52.382;5.270;2023-04-25T08:27:05;101660.94;;;17.99;43.23
55656;BME280;41530;52.382;5.270;2023-04-25T08:29:34;101656.38;;;18.10;43.13
55656;BME280;41530;52.382;5.270;2023-04-25T08:32:01;101650.34;;;18.18;42.78
55656;BME280;41530;52.382;5.270;2023-04-25T08:34:27;101660.63;;;18.32;42.67
55656;BME280;41530;52.382;5.270;2023-04-25T08:36:54;101656.41;;;18.39;42.26
55656;BME280;41530;52.382;5.270;2023-04-25T08:39:21;101668.09;;;18.48;42.56
55656;BME280;41530;52.382;5.270;2023-04-25T08:41:47;101676.50;;;18.53;42.03
55656;BME280;41530;52.382;5.270;2023-04-25T08:44:14;101680.84;;;18.54;42.37
55656;BME280;41530;52.382;5.270;2023-04-25T08:46:44;101681.28;;;18.49;42.16
55656;BME280;41530;52.382;5.270;2023-04-25T08:49:17;101678.69;;;18.38;42.46
55656;BME280;41530;52.382;5.270;2023-04-25T08:51:45;101700.00;;;18.29;42.47
55656;BME280;41530;52.382;5.270;2023-04-25T08:54:18;101699.25;;;18.17;42.63
55656;BME280;41530;52.382;5.270;2023-04-25T08:57:02;101708.78;;;18.10;43.14
55656;BME280;41530;52.382;5.270;2023-04-25T08:59:31;101720.47;;;17.98;43.24
55656;BME280;41530;52.382;5.270;2023-04-25T09:01:58;101719.47;;;17.89;43.34
55656;BME280;41530;52.382;5.270;2023-04-25T09:04:25;101729.09;;;17.80;43.42
55656;BME280;41530;52.382;5.270;2023-04-25T09:06:52;101732.41;;;17.73;43.57
55656;BME280;41530;52.382;5.270;2023-04-25T09:09:18;101741.78;;;17.67;43.65
55656;BME280;41530;52.382;5.270;2023-04-25T09:11:45;101749.16;;;17.64;43.77
55656;BME280;41530;52.382;5.270;2023-04-25T09:19:32;101764.69;;;17.48;43.56
55656;BME280;41530;52.382;5.270;2023-04-25T09:22:04;101763.97;;;17.45;44.04
55656;BME280;41530;52.382;5.270;2023-04-25T09:29:36;101764.38;;;17.41;43.99
55656;BME280;41530;52.382;5.270;2023-04-25T09:32:30;101755.44;;;17.42;43.88
55656;BME280;41530;52.382;5.270;2023-04-25T09:34:57;101766.63;;;17.45;44.13
55656;BME280;41530;52.382;5.270;2023-04-25T09:37:28;101769.78;;;17.51;44.01
55656;BME280;41530;52.382;5.270;2023-04-25T09:39:59;101751.16;;;17.51;43.74
55656;BME280;41530;52.382;5.270;2023-04-25T09:42:29;101758.63;;;17.57;43.90
55656;BME280;41530;52.382;5.270;2023-04-25T09:45:00;101754.38;;;17.65;43.81
55656;BME280;41530;52.382;5.270;2023-04-25T09:47:28;101766.69;;;17.66;43.93
55656;BME280;41530;52.382;5.270;2023-04-25T09:49:55;101778.78;;;17.70;44.08
55656;BME280;41530;52.382;5.270;2023-04-25T09:52:23;101774.69;;;17.66;43.78
55656;BME280;41530;52.382;5.270;2023-04-25T09:54:51;101778.44;;;17.64;44.11
55656;BME280;41530;52.382;5.270;2023-04-25T09:57:22;101775.66;;;17.65;43.82
55656;BME280;41530;52.382;5.270;2023-04-25T09:59:51;101772.38;;;17.62;44.20
55656;BME280;41530;52.382;5.270;2023-04-25T10:02:20;101777.34;;;17.66;44.04
55656;BME280;41530;52.382;5.270;2023-04-25T10:04:48;101781.81;;;17.66;44.17
55656;BME280;41530;52.382;5.270;2023-04-25T10:07:19;101777.47;;;17.65;44.24
55656;BME280;41530;52.382;5.270;2023-04-25T10:09:48;101790.53;;;17.68;44.19
55656;BME280;41530;52.382;5.270;2023-04-25T10:12:19;101775.66;;;17.65;44.06
55656;BME280;41530;52.382;5.270;2023-04-25T10:14:46;101779.63;;;17.60;44.21
55656;BME280;41530;52.382;5.270;2023-04-25T10:17:14;101780.97;;;17.65;44.32
55656;BME280;41530;52.382;5.270;2023-04-25T10:19:41;101781.94;;;17.64;44.59
55656;BME280;41530;52.382;5.270;2023-04-25T10:24:40;101785.78;;;17.60;44.50
55656;BME280;41530;52.382;5.270;2023-04-25T10:27:07;101790.28;;;17.60;44.40
55656;BME280;41530;52.382;5.270;2023-04-25T10:29:35;101798.38;;;17.58;44.56
55656;BME280;41530;52.382;5.270;2023-04-25T10:32:02;101810.72;;;17.59;44.58
55656;BME280;41530;52.382;5.270;2023-04-25T10:34:43;101797.09;;;17.53;44.41
55656;BME280;41530;52.382;5.270;2023-04-25T10:37:13;101812.94;;;17.54;44.78
55656;BME280;41530;52.382;5.270;2023-04-25T10:39:40;101802.53;;;17.51;44.73
55656;BME280;41530;52.382;5.270;2023-04-25T10:42:08;101800.72;;;17.52;44.53
55656;BME280;41530;52.382;5.270;2023-04-25T10:44:37;101805.06;;;17.53;44.51
55656;BME280;41530;52.382;5.270;2023-04-25T10:47:06;101816.69;;;17.52;44.57
55656;BME280;41530;52.382;5.270;2023-04-25T10:49:38;101818.25;;;17.54;44.60
55656;BME280;41530;52.382;5.270;2023-04-25T10:52:19;101826.25;;;17.54;44.34
55656;BME280;41530;52.382;5.270;2023-04-25T10:54:53;101825.38;;;17.54;44.54
55656;BME280;41530;52.382;5.270;2023-04-25T11:00:16;101827.81;;;17.57;44.44
55656;BME280;41530;52.382;5.270;2023-04-25T11:02:58;101822.47;;;17.57;44.78
55656;BME280;41530;52.382;5.270;2023-04-25T11:05:35;101825.16;;;17.57;44.44
55656;BME280;41530;52.382;5.270;2023-04-25T11:08:29;101824.44;;;17.55;44.51
55656;BME280;41530;52.382;5.270;2023-04-25T11:10:59;101811.25;;;17.53;44.79
55656;BME280;41530;52.382;5.270;2023-04-25T11:13:29;101816.16;;;17.58;44.66
55656;BME280;41530;52.382;5.270;2023-04-25T11:15:56;101804.94;;;17.54;44.86
55656;BME280;41530;52.382;5.270;2023-04-25T11:18:41;101820.91;;;17.54;44.50
55656;BME280;41530;52.382;5.270;2023-04-25T11:21:07;101824.44;;;17.55;44.96
55656;BME280;41530;52.382;5.270;2023-04-25T11:23:34;101820.78;;;17.56;44.81
55656;BME280;41530;52.382;5.270;2023-04-25T11:26:01;101816.16;;;17.58;44.93
55656;BME280;41530;52.382;5.270;2023-04-25T11:28:28;101821.47;;;17.58;44.73
55656;BME280;41530;52.382;5.270;2023-04-25T11:30:55;101803.97;;;17.55;44.84
55656;BME280;41530;52.382;5.270;2023-04-25T11:33:25;101823.03;;;17.60;44.68
55656;BME280;41530;52.382;5.270;2023-04-25T11:35:54;101826.00;;;17.57;44.78
55656;BME280;41530;52.382;5.270;2023-04-25T11:38:23;101831.03;;;17.60;44.94
55656;BME280;41530;52.382;5.270;2023-04-25T11:40:54;101832.00;;;17.59;45.02
55656;BME280;41530;52.382;5.270;2023-04-25T11:43:22;101831.03;;;17.60;45.08
55656;BME280;41530;52.382;5.270;2023-04-25T11:45:49;101835.38;;;17.61;44.95
55656;BME280;41530;52.382;5.270;2023-04-25T11:48:18;101824.00;;;17.59;45.13
55656;BME280;41530;52.382;5.270;2023-04-25T11:50:47;101836.34;;;17.60;44.95
55656;BME280;41530;52.382;5.270;2023-04-25T11:53:13;101844.13;;;17.63;45.22
55656;BME280;41530;52.382;5.270;2023-04-25T11:55:40;101833.13;;;17.57;45.11
55656;BME280;41530;52.382;5.270;2023-04-25T11:58:07;101848.56;;;17.63;45.30
55656;BME280;41530;52.382;5.270;2023-04-25T12:00:34;101848.81;;;17.60;45.33
55656;BME280;41530;52.382;5.270;2023-04-25T12:03:01;101851.47;;;17.60;45.48
55656;BME280;41530;52.382;5.270;2023-04-25T12:05:30;101847.72;;;17.62;45.53
55656;BME280;41530;52.382;5.270;2023-04-25T12:08:13;101859.22;;;17.63;45.65
55656;BME280;41530;52.382;5.270;2023-04-25T12:10:42;101857.44;;;17.63;45.88
55656;BME280;41530;52.382;5.270;2023-04-25T12:13:23;101854.63;;;17.65;45.85
55656;BME280;41530;52.382;5.270;2023-04-25T12:15:51;101847.72;;;17.62;46.16
55656;BME280;41530;52.382;5.270;2023-04-25T12:18:21;101857.19;;;17.66;46.33
55656;BME280;41530;52.382;5.270;2023-04-25T12:20:49;101855.59;;;17.64;46.18
55656;BME280;41530;52.382;5.270;2023-04-25T12:23:16;101853.16;;;17.61;46.15
55656;BME280;41530;52.382;5.270;2023-04-25T12:25:44;101857.06;;;17.68;46.42
55656;BME280;41530;52.382;5.270;2023-04-25T12:31:03;101874.59;;;17.70;46.46
55656;BME280;41530;52.382;5.270;2023-04-25T12:33:32;101882.56;;;17.70;46.34
55656;BME280;41530;52.382;5.270;2023-04-25T12:36:00;101879.19;;;17.68;46.62
55656;BME280;41530;52.382;5.270;2023-04-25T12:38:35;101878.47;;;17.66;46.58
55656;BME280;41530;52.382;5.270;2023-04-25T12:41:02;101889.00;;;17.68;46.67
55656;BME280;41530;52.382;5.270;2023-04-25T12:43:29;101878.47;;;17.66;46.55
55656;BME280;41530;52.382;5.270;2023-04-25T12:45:56;101882.94;;;17.66;46.54
55656;BME280;41530;52.382;5.270;2023-04-25T12:48:23;101883.78;;;17.66;46.54
55656;BME280;41530;52.382;5.270;2023-04-25T12:50:50;101883.06;;;17.64;46.56
55656;BME280;41530;52.382;5.270;2023-04-25T12:53:19;101888.13;;;17.67;46.40
55656;BME280;41530;52.382;5.270;2023-04-25T12:55:47;101885.22;;;17.70;46.53
55656;BME280;41530;52.382;5.270;2023-04-25T12:58:15;101886.06;;;17.71;46.51
55656;BME280;41530;52.382;5.270;2023-04-25T13:00:43;101880.88;;;17.69;46.81
55656;BME280;41530;52.382;5.270;2023-04-25T13:03:09;101873.25;;;17.65;46.72
55656;BME280;41530;52.382;5.270;2023-04-25T13:05:38;101886.06;;;17.71;46.79
55656;BME280;41530;52.382;5.270;2023-04-25T13:08:05;101881.72;;;17.70;46.52
55656;BME280;41530;52.382;5.270;2023-04-25T13:10:32;101868.53;;;17.68;46.63
55656;BME280;41530;52.382;5.270;2023-04-25T13:13:00;101885.22;;;17.70;46.76